Climatologie pour Saint-Brevin les Pins
Jour • Résumé pour mars 13, 2017 Système :  Métrique    Anglais   Mixte
« - 1 jour
+ 1 jour »
Jour Semaine Mois Année Personnalisé
  Maximum : Minimum : Moyenne :
Température sous abri : 17.4 °C 6.5 °C 10.8 °C
Point de rosée : 11.4 °C 4.7 °C 7.6 °C
Humidité : 96 % 57 % 82 %
Vitesse du vent : 19.3 km/h 0.0 km/h 7.2 km/h
Rafale : 27.4 km/h - -
Direction :- - SSE
Pression : 1034.8 hPa 1022.6 hPa -
Précipitations : 0.0 mm    
Historical Graphs
 
 
Tableau de données pour mars 13, 2017
Heure Tempé Pt rosée Pression Vent Vitesse Rafale Humidité Taux pluie (/hr) Soleil
00:00 7.9 °C 7.0 °C 1022.6 hPa NW 6.4 km/h 16.1 km/h 94 % 0.0 mm 0 W/m2
00:10 7.9 °C 7.0 °C 1022.6 hPa NNW 1.6 km/h 14.5 km/h 94 % 0.0 mm 0 W/m2
00:15 7.9 °C 7.0 °C 1022.6 hPa NNW 6.4 km/h 16.1 km/h 94 % 0.0 mm 0 W/m2
00:20 7.9 °C 7.0 °C 1022.9 hPa North 12.9 km/h 19.3 km/h 94 % 0.0 mm 0 W/m2
00:25 7.9 °C 7.0 °C 1022.9 hPa NNW 14.5 km/h 19.3 km/h 94 % 0.0 mm 0 W/m2
00:30 7.9 °C 7.0 °C 1022.9 hPa NNW 3.2 km/h 19.3 km/h 94 % 0.0 mm 0 W/m2
00:35 7.9 °C 7.0 °C 1022.9 hPa NNW 8.0 km/h 19.3 km/h 94 % 0.0 mm 0 W/m2
00:40 7.8 °C 6.9 °C 1022.9 hPa North 3.2 km/h 19.3 km/h 94 % 0.0 mm 0 W/m2
00:45 7.8 °C 6.9 °C 1022.9 hPa NNW 12.9 km/h 16.1 km/h 94 % 0.0 mm 0 W/m2
00:50 7.8 °C 6.9 °C 1022.9 hPa NW 4.8 km/h 17.7 km/h 94 % 0.0 mm 0 W/m2
00:55 7.8 °C 6.9 °C 1022.9 hPa North 11.3 km/h 17.7 km/h 94 % 0.0 mm 0 W/m2
01:00 7.8 °C 6.9 °C 1023.2 hPa NW 1.6 km/h 17.7 km/h 94 % 0.0 mm 0 W/m2
01:05 7.8 °C 6.9 °C 1023.2 hPa NNW 4.8 km/h 16.1 km/h 94 % 0.0 mm 0 W/m2
01:10 7.8 °C 6.9 °C 1023.2 hPa NNW 3.2 km/h 16.1 km/h 94 % 0.0 mm 0 W/m2
01:15 7.8 °C 6.9 °C 1023.2 hPa North 6.4 km/h 16.1 km/h 94 % 0.0 mm 0 W/m2
01:20 7.8 °C 6.9 °C 1023.2 hPa NNW 6.4 km/h 17.7 km/h 94 % 0.0 mm 0 W/m2
01:25 7.8 °C 6.9 °C 1023.2 hPa NNW 6.4 km/h 17.7 km/h 94 % 0.0 mm 0 W/m2
01:30 7.8 °C 6.9 °C 1023.2 hPa NW 8.0 km/h 16.1 km/h 94 % 0.0 mm 0 W/m2
01:35 7.8 °C 6.9 °C 1023.6 hPa NNW 3.2 km/h 16.1 km/h 94 % 0.0 mm 0 W/m2
01:40 7.8 °C 6.9 °C 1023.6 hPa NW 8.0 km/h 12.9 km/h 94 % 0.0 mm 0 W/m2
01:45 7.8 °C 7.0 °C 1023.6 hPa NW 4.8 km/h 14.5 km/h 95 % 0.0 mm 0 W/m2
01:50 7.8 °C 7.0 °C 1023.6 hPa NNW 8.0 km/h 14.5 km/h 95 % 0.0 mm 0 W/m2
01:55 7.8 °C 7.1 °C 1023.6 hPa NNW 4.8 km/h 19.3 km/h 95 % 0.0 mm 0 W/m2
02:00 7.9 °C 7.1 °C 1023.6 hPa NW 6.4 km/h 19.3 km/h 95 % 0.0 mm 0 W/m2
02:05 7.9 °C 7.1 °C 1023.6 hPa North 4.8 km/h 14.5 km/h 95 % 0.0 mm 0 W/m2
02:10 7.8 °C 7.1 °C 1023.6 hPa NW 3.2 km/h 14.5 km/h 95 % 0.0 mm 0 W/m2
02:15 7.8 °C 6.9 °C 1023.9 hPa NNW 1.6 km/h 14.5 km/h 94 % 0.0 mm 0 W/m2
02:20 7.8 °C 7.0 °C 1023.9 hPa NW 6.4 km/h 14.5 km/h 95 % 0.0 mm 0 W/m2
02:25 7.8 °C 7.0 °C 1023.9 hPa NW 9.7 km/h 16.1 km/h 95 % 0.0 mm 0 W/m2
02:30 7.8 °C 7.0 °C 1023.9 hPa WNW 6.4 km/h 16.1 km/h 95 % 0.0 mm 0 W/m2
02:35 7.8 °C 7.0 °C 1023.9 hPa NNW 8.0 km/h 16.1 km/h 95 % 0.0 mm 0 W/m2
02:40 7.8 °C 7.0 °C 1023.9 hPa NNW 6.4 km/h 14.5 km/h 95 % 0.0 mm 0 W/m2
02:45 7.8 °C 7.0 °C 1023.9 hPa NNW 4.8 km/h 17.7 km/h 95 % 0.0 mm 0 W/m2
02:50 7.8 °C 7.1 °C 1023.9 hPa North 11.3 km/h 17.7 km/h 95 % 0.0 mm 0 W/m2
02:55 7.8 °C 7.1 °C 1023.9 hPa NNW 4.8 km/h 16.1 km/h 95 % 0.0 mm 0 W/m2
03:00 7.8 °C 7.1 °C 1023.9 hPa North 1.6 km/h 16.1 km/h 95 % 0.0 mm 0 W/m2
03:10 7.8 °C 7.1 °C 1024.3 hPa NW 4.8 km/h 14.5 km/h 95 % 0.0 mm 0 W/m2
03:15 7.8 °C 7.1 °C 1024.3 hPa NW 1.6 km/h 14.5 km/h 95 % 0.0 mm 0 W/m2
03:20 7.8 °C 7.1 °C 1024.3 hPa NNW 4.8 km/h 14.5 km/h 95 % 0.0 mm 0 W/m2
03:30 7.8 °C 7.0 °C 1024.3 hPa NNW 6.4 km/h 14.5 km/h 95 % 0.0 mm 0 W/m2
03:35 7.8 °C 7.0 °C 1024.3 hPa NNW 4.8 km/h 16.1 km/h 95 % 0.0 mm 0 W/m2
03:40 7.7 °C 7.0 °C 1024.3 hPa North 11.3 km/h 16.1 km/h 95 % 0.0 mm 0 W/m2
03:45 7.7 °C 7.0 °C 1024.3 hPa NNE 9.7 km/h 16.1 km/h 95 % 0.0 mm 0 W/m2
03:50 7.7 °C 7.0 °C 1024.3 hPa NNW 4.8 km/h 16.1 km/h 95 % 0.0 mm 0 W/m2
03:55 7.7 °C 6.9 °C 1024.3 hPa North 4.8 km/h 12.9 km/h 95 % 0.0 mm 0 W/m2
04:00 7.7 °C 6.9 °C 1024.3 hPa NNW 11.3 km/h 14.5 km/h 95 % 0.0 mm 0 W/m2
04:05 7.6 °C 6.9 °C 1024.3 hPa North 6.4 km/h 17.7 km/h 95 % 0.0 mm 0 W/m2
04:10 7.6 °C 6.8 °C 1024.3 hPa NW 6.4 km/h 17.7 km/h 95 % 0.0 mm 0 W/m2
04:20 7.6 °C 6.8 °C 1024.3 hPa NW 9.7 km/h 19.3 km/h 95 % 0.0 mm 0 W/m2
04:25 7.4 °C 6.7 °C 1024.3 hPa NNW 9.7 km/h 19.3 km/h 95 % 0.0 mm 0 W/m2
04:30 7.4 °C 6.6 °C 1024.3 hPa NW 12.9 km/h 22.5 km/h 95 % 0.0 mm 0 W/m2
04:35 7.3 °C 6.6 °C 1024.3 hPa NNW 4.8 km/h 22.5 km/h 95 % 0.0 mm 0 W/m2
04:40 7.2 °C 6.5 °C 1024.6 hPa NNW 6.4 km/h 16.1 km/h 95 % 0.0 mm 0 W/m2
04:45 7.2 °C 6.4 °C 1024.6 hPa North 8.0 km/h 17.7 km/h 95 % 0.0 mm 0 W/m2
04:50 7.1 °C 6.4 °C 1024.6 hPa North 9.7 km/h 17.7 km/h 95 % 0.0 mm 0 W/m2
04:55 7.1 °C 6.4 °C 1024.6 hPa NNW 6.4 km/h 16.1 km/h 95 % 0.0 mm 0 W/m2
05:00 7.1 °C 6.3 °C 1024.6 hPa North 8.0 km/h 16.1 km/h 95 % 0.0 mm 0 W/m2
05:10 7.1 °C 6.3 °C 1024.9 hPa North 6.4 km/h 17.7 km/h 95 % 0.0 mm 0 W/m2
05:15 7.2 °C 6.6 °C 1024.9 hPa North 12.9 km/h 17.7 km/h 96 % 0.0 mm 0 W/m2
05:20 7.3 °C 6.7 °C 1024.9 hPa North 8.0 km/h 17.7 km/h 96 % 0.0 mm 0 W/m2
05:25 7.3 °C 6.6 °C 1024.9 hPa North 4.8 km/h 25.7 km/h 95 % 0.0 mm 0 W/m2
05:30 7.4 °C 6.6 °C 1024.9 hPa NE 6.4 km/h 25.7 km/h 95 % 0.0 mm 0 W/m2
05:35 7.4 °C 6.8 °C 1025.3 hPa North 6.4 km/h 16.1 km/h 96 % 0.0 mm 0 W/m2
05:40 7.6 °C 6.8 °C 1025.3 hPa NNW 11.3 km/h 16.1 km/h 95 % 0.0 mm 0 W/m2
05:45 7.7 °C 6.9 °C 1025.3 hPa North 8.0 km/h 16.1 km/h 95 % 0.0 mm 0 W/m2
05:50 7.7 °C 7.0 °C 1025.3 hPa NNE 9.7 km/h 14.5 km/h 95 % 0.0 mm 0 W/m2
05:55 7.8 °C 7.0 °C 1025.3 hPa North 11.3 km/h 16.1 km/h 95 % 0.0 mm 0 W/m2
06:00 7.7 °C 6.9 °C 1025.3 hPa NNE 14.5 km/h 16.1 km/h 95 % 0.0 mm 0 W/m2
06:05 7.6 °C 6.8 °C 1025.3 hPa North 6.4 km/h 19.3 km/h 95 % 0.0 mm 0 W/m2
06:10 7.4 °C 6.7 °C 1025.3 hPa WNW 4.8 km/h 19.3 km/h 95 % 0.0 mm 0 W/m2
06:15 7.3 °C 6.5 °C 1025.6 hPa NNE 8.0 km/h 17.7 km/h 95 % 0.0 mm 0 W/m2
06:20 7.3 °C 6.5 °C 1025.6 hPa North 8.0 km/h 16.1 km/h 95 % 0.0 mm 0 W/m2
06:25 7.3 °C 6.6 °C 1025.6 hPa North 6.4 km/h 14.5 km/h 95 % 0.0 mm 0 W/m2
06:30 7.4 °C 6.6 °C 1026.0 hPa NNW 6.4 km/h 12.9 km/h 95 % 0.0 mm 0 W/m2
06:35 7.3 °C 6.5 °C 1026.0 hPa North 4.8 km/h 11.3 km/h 95 % 0.0 mm 0 W/m2
06:40 7.3 °C 6.6 °C 1026.0 hPa North 3.2 km/h 16.1 km/h 95 % 0.0 mm 0 W/m2
06:45 7.4 °C 6.6 °C 1026.0 hPa North 1.6 km/h 16.1 km/h 95 % 0.0 mm 0 W/m2
06:50 7.5 °C 6.8 °C 1026.0 hPa NNW 1.6 km/h 9.7 km/h 95 % 0.0 mm 0 W/m2
06:55 7.6 °C 6.9 °C 1026.3 hPa Calm   11.3 km/h 95 % 0.0 mm 0 W/m2
07:00 7.7 °C 7.1 °C 1026.3 hPa North 3.2 km/h 11.3 km/h 96 % 0.0 mm 0 W/m2
07:10 7.8 °C 7.2 °C 1026.3 hPa North 9.7 km/h 11.3 km/h 96 % 0.0 mm 0 W/m2
07:15 7.9 °C 7.2 °C 1026.6 hPa Calm   12.9 km/h 95 % 0.0 mm 0 W/m2
07:20 8.0 °C 7.2 °C 1026.6 hPa North 4.8 km/h 12.9 km/h 95 % 0.0 mm 0 W/m2
07:25 8.0 °C 7.2 °C 1026.6 hPa NNW 6.4 km/h 12.9 km/h 95 % 0.0 mm 0 W/m2
07:30 8.2 °C 7.6 °C 1026.6 hPa North 8.0 km/h 19.3 km/h 96 % 0.0 mm 0 W/m2
07:35 8.3 °C 7.7 °C 1026.6 hPa NNW 1.6 km/h 19.3 km/h 96 % 0.0 mm 0 W/m2
07:40 8.4 °C 7.7 °C 1027.0 hPa NNE 14.5 km/h 19.3 km/h 95 % 0.0 mm 7 W/m2
07:45 8.6 °C 7.8 °C 1027.0 hPa North 3.2 km/h 19.3 km/h 95 % 0.0 mm 9 W/m2
07:50 8.7 °C 8.0 °C 1027.0 hPa North 9.7 km/h 19.3 km/h 95 % 0.0 mm 9 W/m2
07:55 8.8 °C 8.0 °C 1027.0 hPa NNW 9.7 km/h 22.5 km/h 95 % 0.0 mm 11 W/m2
08:00 8.9 °C 8.1 °C 1027.3 hPa NNW 4.8 km/h 22.5 km/h 95 % 0.0 mm 12 W/m2
08:05 8.9 °C 8.0 °C 1027.3 hPa NNE 11.3 km/h 16.1 km/h 94 % 0.0 mm 12 W/m2
08:10 9.0 °C 8.1 °C 1027.3 hPa NNE 11.3 km/h 14.5 km/h 94 % 0.0 mm 16 W/m2
08:15 9.1 °C 8.1 °C 1027.3 hPa North 6.4 km/h 14.5 km/h 94 % 0.0 mm 19 W/m2
08:20 9.1 °C 8.1 °C 1027.7 hPa North 9.7 km/h 16.1 km/h 94 % 0.0 mm 21 W/m2
08:25 9.1 °C 8.0 °C 1027.7 hPa NNE 9.7 km/h 16.1 km/h 93 % 0.0 mm 26 W/m2
08:30 9.2 °C 8.1 °C 1027.7 hPa North 8.0 km/h 16.1 km/h 93 % 0.0 mm 26 W/m2
08:35 9.2 °C 8.1 °C 1028.0 hPa ENE 8.0 km/h 19.3 km/h 93 % 0.0 mm 28 W/m2
08:40 9.2 °C 8.1 °C 1028.0 hPa NNE 8.0 km/h 19.3 km/h 93 % 0.0 mm 35 W/m2
08:45 9.2 °C 8.0 °C 1028.0 hPa North 9.7 km/h 17.7 km/h 92 % 0.0 mm 37 W/m2
08:50 9.1 °C 7.8 °C 1028.0 hPa Calm   16.1 km/h 92 % 0.0 mm 42 W/m2
08:55 8.9 °C 7.7 °C 1028.0 hPa NNE 6.4 km/h 12.9 km/h 92 % 0.0 mm 42 W/m2
09:00 8.9 °C 7.8 °C 1028.3 hPa North 1.6 km/h 12.9 km/h 93 % 0.0 mm 44 W/m2
09:10 8.9 °C 7.8 °C 1028.3 hPa NE 8.0 km/h 9.7 km/h 93 % 0.0 mm 65 W/m2
09:20 9.1 °C 8.0 °C 1028.7 hPa NNE 6.4 km/h 17.7 km/h 93 % 0.0 mm 63 W/m2
09:25 9.2 °C 8.1 °C 1028.7 hPa NNE 4.8 km/h 17.7 km/h 93 % 0.0 mm 70 W/m2
09:30 9.3 °C 8.2 °C 1028.7 hPa North 8.0 km/h 12.9 km/h 93 % 0.0 mm 79 W/m2
09:35 9.5 °C 8.3 °C 1028.7 hPa NNE 4.8 km/h 12.9 km/h 92 % 0.0 mm 121 W/m2
09:40 9.7 °C 8.3 °C 1028.7 hPa North 9.7 km/h 12.9 km/h 91 % 0.0 mm 315 W/m2
09:45 10.1 °C 8.7 °C 1028.7 hPa NE 9.7 km/h 14.5 km/h 91 % 0.0 mm 330 W/m2
09:50 10.6 °C 9.0 °C 1028.7 hPa ENE 4.8 km/h 14.5 km/h 90 % 0.0 mm 345 W/m2
09:55 10.7 °C 8.8 °C 1028.7 hPa North 8.0 km/h 17.7 km/h 88 % 0.0 mm 357 W/m2
10:00 10.8 °C 8.8 °C 1029.0 hPa North 6.4 km/h 20.9 km/h 87 % 0.0 mm 374 W/m2
10:05 11.2 °C 9.3 °C 1029.0 hPa NNE 8.0 km/h 20.9 km/h 88 % 0.0 mm 381 W/m2
10:10 11.4 °C 9.4 °C 1029.0 hPa North 12.9 km/h 16.1 km/h 87 % 0.0 mm 403 W/m2
10:20 11.6 °C 9.2 °C 1029.3 hPa North 9.7 km/h 22.5 km/h 85 % 0.0 mm 411 W/m2
10:25 11.8 °C 9.3 °C 1029.3 hPa NNE 8.0 km/h 20.9 km/h 85 % 0.0 mm 427 W/m2
10:30 11.9 °C 9.3 °C 1029.3 hPa NE 11.3 km/h 22.5 km/h 84 % 0.0 mm 436 W/m2
10:35 12.1 °C 9.4 °C 1029.3 hPa NE 3.2 km/h 22.5 km/h 84 % 0.0 mm 445 W/m2
10:40 12.2 °C 9.4 °C 1029.7 hPa NE 8.0 km/h 22.5 km/h 83 % 0.0 mm 454 W/m2
10:45 12.5 °C 9.9 °C 1029.3 hPa NE 6.4 km/h 17.7 km/h 84 % 0.0 mm 466 W/m2
10:50 12.6 °C 9.4 °C 1029.7 hPa North 11.3 km/h 19.3 km/h 81 % 0.0 mm 501 W/m2
10:55 12.7 °C 9.7 °C 1029.7 hPa NNE 6.4 km/h 19.3 km/h 82 % 0.0 mm 497 W/m2
11:00 12.8 °C 9.8 °C 1029.7 hPa NNE 17.7 km/h 17.7 km/h 82 % 0.0 mm 504 W/m2
11:05 12.9 °C 9.9 °C 1029.7 hPa NNE 9.7 km/h 19.3 km/h 82 % 0.0 mm 520 W/m2
11:10 13.3 °C 10.0 °C 1029.7 hPa North 6.4 km/h 19.3 km/h 80 % 0.0 mm 520 W/m2
11:15 13.4 °C 10.4 °C 1029.7 hPa NNW 1.6 km/h 16.1 km/h 82 % 0.0 mm 533 W/m2
11:20 13.6 °C 10.0 °C 1029.7 hPa NNE 11.3 km/h 19.3 km/h 79 % 0.0 mm 545 W/m2
11:25 13.6 °C 10.0 °C 1029.7 hPa North 9.7 km/h 20.9 km/h 79 % 0.0 mm 552 W/m2
11:30 13.6 °C 10.2 °C 1029.7 hPa NNE 9.7 km/h 20.9 km/h 80 % 0.0 mm 492 W/m2
11:40 13.6 °C 10.0 °C 1029.7 hPa NE 11.3 km/h 19.3 km/h 79 % 0.0 mm 575 W/m2
11:45 14.1 °C 10.8 °C 1029.7 hPa NE 12.9 km/h 20.9 km/h 81 % 0.0 mm 580 W/m2
11:50 14.6 °C 10.6 °C 1029.7 hPa North 4.8 km/h 20.9 km/h 77 % 0.0 mm 585 W/m2
11:55 14.3 °C 10.5 °C 1029.7 hPa North 6.4 km/h 17.7 km/h 78 % 0.0 mm 605 W/m2
12:00 14.4 °C 10.5 °C 1030.0 hPa North 8.0 km/h 19.3 km/h 77 % 0.0 mm 598 W/m2
12:05 14.5 °C 10.5 °C 1030.0 hPa North 4.8 km/h 20.9 km/h 77 % 0.0 mm 601 W/m2
12:10 14.5 °C 10.1 °C 1030.0 hPa North 9.7 km/h 20.9 km/h 75 % 0.0 mm 663 W/m2
12:15 14.6 °C 10.6 °C 1030.0 hPa NNE 8.0 km/h 19.3 km/h 77 % 0.0 mm 624 W/m2
12:20 14.7 °C 10.7 °C 1030.0 hPa NNE 3.2 km/h 17.7 km/h 77 % 0.0 mm 619 W/m2
12:25 15.0 °C 10.6 °C 1030.4 hPa NNW 8.0 km/h 22.5 km/h 75 % 0.0 mm 628 W/m2
12:30 15.1 °C 10.7 °C 1030.4 hPa North 8.0 km/h 22.5 km/h 75 % 0.0 mm 636 W/m2
12:40 15.2 °C 10.4 °C 1030.4 hPa NW 16.1 km/h 22.5 km/h 73 % 0.0 mm 645 W/m2
12:45 15.3 °C 10.5 °C 1030.4 hPa ENE 11.3 km/h 25.7 km/h 73 % 0.0 mm 645 W/m2
12:50 15.6 °C 10.7 °C 1030.4 hPa North 9.7 km/h 25.7 km/h 73 % 0.0 mm 656 W/m2
12:55 15.7 °C 10.4 °C 1030.4 hPa North 14.5 km/h 20.9 km/h 71 % 0.0 mm 650 W/m2
13:00 15.8 °C 10.7 °C 1030.4 hPa NNE 6.4 km/h 22.5 km/h 72 % 0.0 mm 657 W/m2
13:05 16.4 °C 11.0 °C 1030.4 hPa NE 14.5 km/h 22.5 km/h 70 % 0.0 mm 675 W/m2
13:10 16.2 °C 11.4 °C 1030.4 hPa NNE 9.7 km/h 24.1 km/h 73 % 0.0 mm 708 W/m2
13:15 16.2 °C 11.0 °C 1030.4 hPa NNE 19.3 km/h 24.1 km/h 71 % 0.0 mm 679 W/m2
13:20 16.3 °C 10.4 °C 1030.4 hPa NNE 9.7 km/h 24.1 km/h 68 % 0.0 mm 694 W/m2
13:25 16.4 °C 10.9 °C 1030.4 hPa North 6.4 km/h 24.1 km/h 70 % 0.0 mm 682 W/m2
13:30 16.6 °C 10.4 °C 1030.4 hPa NE 8.0 km/h 22.5 km/h 67 % 0.0 mm 671 W/m2
13:35 16.7 °C 10.3 °C 1030.4 hPa NE 14.5 km/h 19.3 km/h 66 % 0.0 mm 647 W/m2
13:40 16.5 °C 10.3 °C 1030.0 hPa North 8.0 km/h 19.3 km/h 67 % 0.0 mm 643 W/m2
13:45 16.4 °C 9.8 °C 1030.0 hPa NE 6.4 km/h 22.5 km/h 65 % 0.0 mm 647 W/m2
13:50 16.8 °C 11.3 °C 1030.0 hPa NE 12.9 km/h 22.5 km/h 70 % 0.0 mm 626 W/m2
13:55 16.9 °C 10.9 °C 1030.0 hPa NNW 6.4 km/h 17.7 km/h 68 % 0.0 mm 643 W/m2
14:00 16.7 °C 10.1 °C 1030.0 hPa North 12.9 km/h 19.3 km/h 65 % 0.0 mm 636 W/m2
14:05 16.6 °C 9.7 °C 1030.0 hPa North 3.2 km/h 20.9 km/h 64 % 0.0 mm 628 W/m2
14:10 16.6 °C 10.2 °C 1030.0 hPa NNW 12.9 km/h 20.9 km/h 66 % 0.0 mm 629 W/m2
14:15 16.8 °C 9.2 °C 1030.0 hPa NNW 3.2 km/h 19.3 km/h 61 % 0.0 mm 628 W/m2
14:20 16.8 °C 9.9 °C 1030.0 hPa North 14.5 km/h 22.5 km/h 64 % 0.0 mm 619 W/m2
14:25 16.9 °C 9.1 °C 1030.0 hPa NE 4.8 km/h 22.5 km/h 60 % 0.0 mm 612 W/m2
14:30 17.4 °C 10.0 °C 1030.0 hPa NNE 6.4 km/h 20.9 km/h 62 % 0.0 mm 643 W/m2
14:40 17.2 °C 9.8 °C 1030.0 hPa NE 9.7 km/h 27.4 km/h 62 % 0.0 mm 531 W/m2
14:45 16.9 °C 9.3 °C 1030.0 hPa North 16.1 km/h 27.4 km/h 61 % 0.0 mm 638 W/m2
14:50 16.6 °C 9.1 °C 1030.0 hPa NE 11.3 km/h 24.1 km/h 61 % 0.0 mm 635 W/m2
14:55 17.1 °C 10.7 °C 1030.0 hPa North 12.9 km/h 24.1 km/h 66 % 0.0 mm 598 W/m2
15:00 17.3 °C 9.9 °C 1030.0 hPa ENE 6.4 km/h 19.3 km/h 62 % 0.0 mm 624 W/m2
15:10 17.2 °C 9.8 °C 1030.0 hPa NNE 11.3 km/h 20.9 km/h 62 % 0.0 mm 557 W/m2
15:15 17.3 °C 9.2 °C 1030.0 hPa ENE 17.7 km/h 19.3 km/h 59 % 0.0 mm 543 W/m2
15:20 17.2 °C 9.3 °C 1030.0 hPa NW 8.0 km/h 19.3 km/h 60 % 0.0 mm 527 W/m2
15:25 16.7 °C 8.4 °C 1030.0 hPa North 8.0 km/h 20.9 km/h 58 % 0.0 mm 519 W/m2
15:35 17.1 °C 9.7 °C 1030.0 hPa NNE 8.0 km/h 19.3 km/h 62 % 0.0 mm 499 W/m2
15:40 16.7 °C 8.2 °C 1030.0 hPa North 6.4 km/h 20.9 km/h 57 % 0.0 mm 478 W/m2
15:45 16.8 °C 8.2 °C 1030.0 hPa NE 11.3 km/h 20.9 km/h 57 % 0.0 mm 482 W/m2
15:50 16.9 °C 8.6 °C 1030.4 hPa NE 9.7 km/h 17.7 km/h 58 % 0.0 mm 469 W/m2
15:55 16.8 °C 8.8 °C 1030.4 hPa North 9.7 km/h 19.3 km/h 59 % 0.0 mm 457 W/m2
16:00 16.5 °C 8.5 °C 1030.4 hPa North 9.7 km/h 19.3 km/h 59 % 0.0 mm 448 W/m2
16:05 16.6 °C 8.5 °C 1030.4 hPa North 11.3 km/h 22.5 km/h 59 % 0.0 mm 436 W/m2
16:10 16.7 °C 9.4 °C 1030.4 hPa ENE 9.7 km/h 22.5 km/h 62 % 0.0 mm 448 W/m2
16:15 16.7 °C 8.9 °C 1030.4 hPa ENE 3.2 km/h 19.3 km/h 60 % 0.0 mm 448 W/m2
16:20 16.4 °C 8.4 °C 1030.4 hPa NE 16.1 km/h 19.3 km/h 59 % 0.0 mm 137 W/m2
16:25 16.1 °C 8.5 °C 1030.4 hPa North 4.8 km/h 19.3 km/h 61 % 0.0 mm 397 W/m2
16:30 16.2 °C 8.6 °C 1030.4 hPa ENE 16.1 km/h 22.5 km/h 61 % 0.0 mm 408 W/m2
16:35 16.1 °C 8.3 °C 1030.4 hPa ENE 12.9 km/h 22.5 km/h 60 % 0.0 mm 420 W/m2
16:40 15.8 °C 8.0 °C 1030.4 hPa NE 14.5 km/h 19.3 km/h 60 % 0.0 mm 279 W/m2
16:45 15.9 °C 8.4 °C 1030.4 hPa NE 11.3 km/h 19.3 km/h 61 % 0.0 mm 262 W/m2
16:50 15.7 °C 8.2 °C 1030.7 hPa NNE 9.7 km/h 19.3 km/h 61 % 0.0 mm 156 W/m2
16:55 15.8 °C 8.3 °C 1030.4 hPa ENE 11.3 km/h 19.3 km/h 61 % 0.0 mm 128 W/m2
17:00 15.7 °C 8.2 °C 1030.7 hPa NNE 6.4 km/h 19.3 km/h 61 % 0.0 mm 151 W/m2
17:05 15.7 °C 8.2 °C 1030.7 hPa North 9.7 km/h 19.3 km/h 61 % 0.0 mm 132 W/m2
17:10 15.5 °C 8.5 °C 1030.7 hPa NNE 6.4 km/h 19.3 km/h 63 % 0.0 mm 142 W/m2
17:15 15.3 °C 7.8 °C 1030.7 hPa NNE 8.0 km/h 24.1 km/h 61 % 0.0 mm 137 W/m2
17:20 15.2 °C 7.9 °C 1030.7 hPa NNE 4.8 km/h 24.1 km/h 62 % 0.0 mm 146 W/m2
17:25 15.1 °C 8.3 °C 1030.7 hPa NE 11.3 km/h 22.5 km/h 64 % 0.0 mm 135 W/m2
17:30 15.1 °C 7.8 °C 1030.7 hPa NNE 8.0 km/h 20.9 km/h 62 % 0.0 mm 118 W/m2
17:40 14.7 °C 7.7 °C 1031.0 hPa North 6.4 km/h 16.1 km/h 63 % 0.0 mm 98 W/m2
17:45 14.4 °C 7.9 °C 1031.0 hPa ENE 11.3 km/h 16.1 km/h 65 % 0.0 mm 93 W/m2
17:50 14.3 °C 8.0 °C 1031.0 hPa NE 8.0 km/h 20.9 km/h 66 % 0.0 mm 84 W/m2
17:55 14.1 °C 7.8 °C 1031.0 hPa NE 3.2 km/h 20.9 km/h 66 % 0.0 mm 81 W/m2
18:00 14.0 °C 7.7 °C 1031.0 hPa NE 8.0 km/h 19.3 km/h 66 % 0.0 mm 72 W/m2
18:05 13.8 °C 7.8 °C 1031.0 hPa NNW 9.7 km/h 14.5 km/h 67 % 0.0 mm 69 W/m2
18:10 13.7 °C 7.6 °C 1031.4 hPa NE 16.1 km/h 16.1 km/h 67 % 0.0 mm 65 W/m2
18:15 13.5 °C 7.5 °C 1031.4 hPa NE 1.6 km/h 19.3 km/h 67 % 0.0 mm 62 W/m2
18:20 13.3 °C 7.5 °C 1031.4 hPa North 8.0 km/h 19.3 km/h 68 % 0.0 mm 60 W/m2
18:25 13.2 °C 7.6 °C 1031.4 hPa NNE 1.6 km/h 14.5 km/h 69 % 0.0 mm 56 W/m2
18:30 13.0 °C 7.7 °C 1031.7 hPa NE 3.2 km/h 12.9 km/h 70 % 0.0 mm 49 W/m2
18:35 12.9 °C 7.4 °C 1031.7 hPa North 9.7 km/h 14.5 km/h 69 % 0.0 mm 46 W/m2
18:40 12.8 °C 7.3 °C 1031.7 hPa NE 11.3 km/h 14.5 km/h 69 % 0.0 mm 42 W/m2
18:45 12.8 °C 7.2 °C 1031.7 hPa North 8.0 km/h 17.7 km/h 69 % 0.0 mm 35 W/m2
18:55 12.3 °C 7.2 °C 1032.1 hPa North 4.8 km/h 14.5 km/h 71 % 0.0 mm 23 W/m2
19:00 12.1 °C 6.8 °C 1032.1 hPa NNE 3.2 km/h 16.1 km/h 70 % 0.0 mm 16 W/m2
19:05 12.0 °C 6.9 °C 1032.1 hPa North 8.0 km/h 17.7 km/h 71 % 0.0 mm 11 W/m2
19:10 11.9 °C 6.6 °C 1032.1 hPa North 8.0 km/h 17.7 km/h 70 % 0.0 mm 7 W/m2
19:15 11.7 °C 6.6 °C 1032.1 hPa NNE 6.4 km/h 16.1 km/h 71 % 0.0 mm 5 W/m2
19:20 11.3 °C 6.5 °C 1032.4 hPa North 4.8 km/h 16.1 km/h 72 % 0.0 mm 0 W/m2
19:25 11.2 °C 6.4 °C 1032.4 hPa North 3.2 km/h 14.5 km/h 72 % 0.0 mm 0 W/m2
19:30 11.1 °C 6.2 °C 1032.4 hPa NNE 4.8 km/h 14.5 km/h 72 % 0.0 mm 0 W/m2
19:40 10.7 °C 6.0 °C 1032.4 hPa NNW 4.8 km/h 8.0 km/h 73 % 0.0 mm 0 W/m2
19:45 10.3 °C 6.1 °C 1032.4 hPa North 9.7 km/h 9.7 km/h 75 % 0.0 mm 0 W/m2
19:50 10.2 °C 6.1 °C 1032.7 hPa ENE 1.6 km/h 9.7 km/h 76 % 0.0 mm 0 W/m2
19:55 10.1 °C 6.0 °C 1032.7 hPa NNW 8.0 km/h 16.1 km/h 76 % 0.0 mm 0 W/m2
20:00 10.3 °C 6.0 °C 1032.7 hPa NNE 6.4 km/h 16.1 km/h 75 % 0.0 mm 0 W/m2
20:10 9.8 °C 5.8 °C 1032.7 hPa NNE 8.0 km/h 11.3 km/h 76 % 0.0 mm 0 W/m2
20:15 9.8 °C 5.7 °C 1032.7 hPa North 4.8 km/h 11.3 km/h 76 % 0.0 mm 0 W/m2
20:20 9.8 °C 5.7 °C 1033.1 hPa North 4.8 km/h 12.9 km/h 76 % 0.0 mm 0 W/m2
20:25 9.7 °C 5.6 °C 1033.1 hPa North 3.2 km/h 12.9 km/h 76 % 0.0 mm 0 W/m2
20:30 9.5 °C 5.7 °C 1033.1 hPa North 1.6 km/h 9.7 km/h 77 % 0.0 mm 0 W/m2
20:35 9.4 °C 5.6 °C 1033.1 hPa NNE 4.8 km/h 9.7 km/h 77 % 0.0 mm 0 W/m2
20:40 9.3 °C 5.6 °C 1033.1 hPa North 6.4 km/h 11.3 km/h 78 % 0.0 mm 0 W/m2
20:45 9.2 °C 5.5 °C 1033.1 hPa North 4.8 km/h 11.3 km/h 78 % 0.0 mm 0 W/m2
20:50 9.1 °C 5.4 °C 1033.4 hPa North 4.8 km/h 11.3 km/h 78 % 0.0 mm 0 W/m2
20:55 9.0 °C 5.6 °C 1033.4 hPa NNE 4.8 km/h 9.7 km/h 79 % 0.0 mm 0 W/m2
21:00 9.1 °C 5.6 °C 1033.4 hPa Calm   9.7 km/h 79 % 0.0 mm 0 W/m2
21:05 9.1 °C 5.6 °C 1033.4 hPa North 1.6 km/h 9.7 km/h 79 % 0.0 mm 0 W/m2
21:10 8.9 °C 5.6 °C 1033.4 hPa North 8.0 km/h 12.9 km/h 80 % 0.0 mm 0 W/m2
21:15 8.7 °C 5.6 °C 1033.4 hPa North 3.2 km/h 12.9 km/h 81 % 0.0 mm 0 W/m2
21:20 8.8 °C 5.5 °C 1033.4 hPa NNE 3.2 km/h 9.7 km/h 80 % 0.0 mm 0 W/m2
21:25 8.7 °C 5.6 °C 1033.7 hPa North 9.7 km/h 9.7 km/h 81 % 0.0 mm 0 W/m2
21:30 8.6 °C 5.5 °C 1033.7 hPa NNE 8.0 km/h 11.3 km/h 81 % 0.0 mm 0 W/m2
21:35 8.6 °C 5.5 °C 1033.7 hPa NNE 1.6 km/h 11.3 km/h 81 % 0.0 mm 0 W/m2
21:40 8.5 °C 5.6 °C 1033.7 hPa North 3.2 km/h 11.3 km/h 82 % 0.0 mm 0 W/m2
21:45 8.5 °C 5.6 °C 1033.7 hPa NNE 9.7 km/h 9.7 km/h 82 % 0.0 mm 0 W/m2
21:50 8.6 °C 5.5 °C 1033.7 hPa North 6.4 km/h 9.7 km/h 81 % 0.0 mm 0 W/m2
21:55 8.4 °C 5.5 °C 1034.1 hPa NNE 3.2 km/h 9.7 km/h 82 % 0.0 mm 0 W/m2
22:00 8.2 °C 5.3 °C 1034.1 hPa NNW 1.6 km/h 9.7 km/h 82 % 0.0 mm 0 W/m2
22:10 8.0 °C 5.3 °C 1034.1 hPa North 3.2 km/h 9.7 km/h 83 % 0.0 mm 0 W/m2
22:15 7.9 °C 5.2 °C 1034.4 hPa NNE 3.2 km/h 9.7 km/h 83 % 0.0 mm 0 W/m2
22:20 7.7 °C 5.2 °C 1034.4 hPa North 3.2 km/h 8.0 km/h 84 % 0.0 mm 0 W/m2
22:25 7.6 °C 5.2 °C 1034.4 hPa NNE 1.6 km/h 8.0 km/h 85 % 0.0 mm 0 W/m2
22:30 7.4 °C 5.0 °C 1034.4 hPa North 6.4 km/h 9.7 km/h 85 % 0.0 mm 0 W/m2
22:35 7.6 °C 5.2 °C 1034.4 hPa North 3.2 km/h 9.7 km/h 85 % 0.0 mm 0 W/m2
22:40 7.5 °C 5.1 °C 1034.4 hPa North 1.6 km/h 8.0 km/h 85 % 0.0 mm 0 W/m2
22:45 7.3 °C 5.1 °C 1034.8 hPa North 1.6 km/h 6.4 km/h 86 % 0.0 mm 0 W/m2
22:50 7.1 °C 4.9 °C 1034.8 hPa North 4.8 km/h 8.0 km/h 86 % 0.0 mm 0 W/m2
22:55 7.2 °C 5.0 °C 1034.8 hPa NNE 3.2 km/h 8.0 km/h 86 % 0.0 mm 0 W/m2
23:00 7.1 °C 4.9 °C 1034.8 hPa Calm   8.0 km/h 86 % 0.0 mm 0 W/m2
23:05 6.9 °C 4.8 °C 1034.8 hPa NNE 3.2 km/h 9.7 km/h 86 % 0.0 mm 0 W/m2
23:10 6.9 °C 4.9 °C 1034.8 hPa North 3.2 km/h 9.7 km/h 87 % 0.0 mm 0 W/m2
23:15 7.1 °C 4.9 °C 1034.8 hPa NNE 1.6 km/h 9.7 km/h 86 % 0.0 mm 0 W/m2
23:20 6.9 °C 4.8 °C 1034.8 hPa NNE 9.7 km/h 9.7 km/h 86 % 0.0 mm 0 W/m2
23:25 6.8 °C 4.8 °C 1034.8 hPa NNE 3.2 km/h 9.7 km/h 87 % 0.0 mm 0 W/m2
23:30 6.7 °C 4.8 °C 1034.8 hPa NE 4.8 km/h 8.0 km/h 88 % 0.0 mm 0 W/m2
23:35 6.6 °C 4.8 °C 1034.8 hPa NNE 1.6 km/h 8.0 km/h 88 % 0.0 mm 0 W/m2
23:40 6.6 °C 4.7 °C 1034.8 hPa Calm   8.0 km/h 88 % 0.0 mm 0 W/m2
23:50 6.5 °C 4.7 °C 1034.8 hPa NE 3.2 km/h 8.0 km/h 88 % 0.0 mm 0 W/m2
23:55 6.5 °C 4.7 °C 1034.8 hPa NNE 4.8 km/h 8.0 km/h 88 % 0.0 mm 0 W/m2
Avec l'autorisation de Weather Underground - 1.75 mb